sensor_id;sensor_type;location;lat;lon;timestamp;P1;durP1;ratioP1;P2;durP2;ratioP2
13079;SDS011;6606;49.154;9.280;2022-08-25T00:01:13;4.78;;;3.60;;
13079;SDS011;6606;49.154;9.280;2022-08-25T00:03:42;4.68;;;4.28;;
13079;SDS011;6606;49.154;9.280;2022-08-25T00:06:09;3.47;;;3.17;;
13079;SDS011;6606;49.154;9.280;2022-08-25T00:08:37;3.90;;;3.50;;
13079;SDS011;6606;49.154;9.280;2022-08-25T00:11:05;4.05;;;3.70;;
13079;SDS011;6606;49.154;9.280;2022-08-25T00:13:33;3.45;;;3.15;;
13079;SDS011;6606;49.154;9.280;2022-08-25T00:16:00;3.67;;;3.38;;
13079;SDS011;6606;49.154;9.280;2022-08-25T00:18:26;3.92;;;3.55;;
13079;SDS011;6606;49.154;9.280;2022-08-25T00:20:53;3.97;;;3.63;;
13079;SDS011;6606;49.154;9.280;2022-08-25T00:23:20;4.28;;;3.47;;
13079;SDS011;6606;49.154;9.280;2022-08-25T00:25:48;4.05;;;3.65;;
13079;SDS011;6606;49.154;9.280;2022-08-25T00:28:15;4.57;;;3.47;;
13079;SDS011;6606;49.154;9.280;2022-08-25T00:30:42;3.90;;;3.55;;
13079;SDS011;6606;49.154;9.280;2022-08-25T00:33:09;4.15;;;3.75;;
13079;SDS011;6606;49.154;9.280;2022-08-25T00:35:36;3.90;;;3.50;;
13079;SDS011;6606;49.154;9.280;2022-08-25T00:38:04;3.90;;;3.60;;
13079;SDS011;6606;49.154;9.280;2022-08-25T00:40:30;4.68;;;4.20;;
13079;SDS011;6606;49.154;9.280;2022-08-25T00:42:59;4.38;;;3.97;;
13079;SDS011;6606;49.154;9.280;2022-08-25T00:45:26;4.28;;;3.88;;
13079;SDS011;6606;49.154;9.280;2022-08-25T00:47:53;4.07;;;3.67;;
13079;SDS011;6606;49.154;9.280;2022-08-25T00:50:22;4.28;;;3.88;;
13079;SDS011;6606;49.154;9.280;2022-08-25T00:52:50;4.10;;;3.78;;
13079;SDS011;6606;49.154;9.280;2022-08-25T00:55:20;4.53;;;4.13;;
13079;SDS011;6606;49.154;9.280;2022-08-25T00:57:51;4.32;;;3.78;;
13079;SDS011;6606;49.154;9.280;2022-08-25T01:00:24;4.15;;;3.72;;
13079;SDS011;6606;49.154;9.280;2022-08-25T01:02:52;4.03;;;3.63;;
13079;SDS011;6606;49.154;9.280;2022-08-25T01:05:20;4.30;;;3.90;;
13079;SDS011;6606;49.154;9.280;2022-08-25T01:07:50;5.03;;;4.00;;
13079;SDS011;6606;49.154;9.280;2022-08-25T01:10:18;4.57;;;4.18;;
13079;SDS011;6606;49.154;9.280;2022-08-25T01:12:47;4.45;;;4.05;;
13079;SDS011;6606;49.154;9.280;2022-08-25T01:15:14;5.25;;;3.92;;
13079;SDS011;6606;49.154;9.280;2022-08-25T01:17:45;4.50;;;4.10;;
13079;SDS011;6606;49.154;9.280;2022-08-25T01:20:15;4.38;;;3.95;;
13079;SDS011;6606;49.154;9.280;2022-08-25T01:22:45;6.10;;;4.30;;
13079;SDS011;6606;49.154;9.280;2022-08-25T01:25:19;4.82;;;4.35;;
13079;SDS011;6606;49.154;9.280;2022-08-25T01:27:53;5.88;;;4.30;;
13079;SDS011;6606;49.154;9.280;2022-08-25T01:30:19;4.88;;;4.38;;
13079;SDS011;6606;49.154;9.280;2022-08-25T01:32:46;6.13;;;4.18;;
13079;SDS011;6606;49.154;9.280;2022-08-25T01:35:13;4.55;;;4.07;;
13079;SDS011;6606;49.154;9.280;2022-08-25T01:37:40;4.60;;;3.88;;
13079;SDS011;6606;49.154;9.280;2022-08-25T01:40:08;4.35;;;3.95;;
13079;SDS011;6606;49.154;9.280;2022-08-25T01:42:37;4.63;;;4.18;;
13079;SDS011;6606;49.154;9.280;2022-08-25T01:45:11;6.57;;;4.50;;
13079;SDS011;6606;49.154;9.280;2022-08-25T01:47:38;4.93;;;4.43;;
13079;SDS011;6606;49.154;9.280;2022-08-25T01:50:05;5.18;;;4.68;;
13079;SDS011;6606;49.154;9.280;2022-08-25T01:52:33;5.15;;;4.65;;
13079;SDS011;6606;49.154;9.280;2022-08-25T01:55:09;5.43;;;4.57;;
13079;SDS011;6606;49.154;9.280;2022-08-25T01:57:35;5.80;;;4.80;;
13079;SDS011;6606;49.154;9.280;2022-08-25T02:00:04;7.30;;;4.10;;
13079;SDS011;6606;49.154;9.280;2022-08-25T02:02:36;5.60;;;4.78;;
13079;SDS011;6606;49.154;9.280;2022-08-25T02:05:03;5.85;;;4.70;;
13079;SDS011;6606;49.154;9.280;2022-08-25T02:07:30;5.20;;;4.57;;
13079;SDS011;6606;49.154;9.280;2022-08-25T02:09:57;5.20;;;4.70;;
13079;SDS011;6606;49.154;9.280;2022-08-25T02:12:25;5.20;;;4.70;;
13079;SDS011;6606;49.154;9.280;2022-08-25T02:14:53;4.85;;;4.45;;
13079;SDS011;6606;49.154;9.280;2022-08-25T02:17:19;5.68;;;5.00;;
13079;SDS011;6606;49.154;9.280;2022-08-25T02:19:46;5.75;;;5.15;;
13079;SDS011;6606;49.154;9.280;2022-08-25T02:22:12;6.43;;;4.70;;
13079;SDS011;6606;49.154;9.280;2022-08-25T02:24:39;5.32;;;4.75;;
13079;SDS011;6606;49.154;9.280;2022-08-25T02:27:06;8.90;;;5.47;;
13079;SDS011;6606;49.154;9.280;2022-08-25T02:29:35;5.07;;;4.50;;
13079;SDS011;6606;49.154;9.280;2022-08-25T02:32:02;6.45;;;4.65;;
13079;SDS011;6606;49.154;9.280;2022-08-25T02:34:29;7.25;;;4.40;;
13079;SDS011;6606;49.154;9.280;2022-08-25T02:36:56;5.10;;;4.60;;
13079;SDS011;6606;49.154;9.280;2022-08-25T02:39:23;4.35;;;3.95;;
13079;SDS011;6606;49.154;9.280;2022-08-25T02:41:49;4.97;;;4.37;;
13079;SDS011;6606;49.154;9.280;2022-08-25T02:44:16;4.80;;;4.30;;
13079;SDS011;6606;49.154;9.280;2022-08-25T02:46:45;5.18;;;4.68;;
13079;SDS011;6606;49.154;9.280;2022-08-25T02:49:12;5.05;;;4.32;;
13079;SDS011;6606;49.154;9.280;2022-08-25T02:51:39;4.93;;;4.50;;
13079;SDS011;6606;49.154;9.280;2022-08-25T02:54:05;7.23;;;4.50;;
13079;SDS011;6606;49.154;9.280;2022-08-25T02:56:32;5.87;;;5.03;;
13079;SDS011;6606;49.154;9.280;2022-08-25T02:58:59;6.50;;;5.33;;
13079;SDS011;6606;49.154;9.280;2022-08-25T03:01:26;6.72;;;6.03;;
13079;SDS011;6606;49.154;9.280;2022-08-25T03:03:55;5.85;;;5.30;;
13079;SDS011;6606;49.154;9.280;2022-08-25T03:06:22;6.93;;;5.43;;
13079;SDS011;6606;49.154;9.280;2022-08-25T03:08:49;6.53;;;5.63;;
13079;SDS011;6606;49.154;9.280;2022-08-25T03:11:17;5.67;;;4.90;;
13079;SDS011;6606;49.154;9.280;2022-08-25T03:13:44;6.47;;;4.93;;
13079;SDS011;6606;49.154;9.280;2022-08-25T03:16:11;5.30;;;4.80;;
13079;SDS011;6606;49.154;9.280;2022-08-25T03:18:38;5.65;;;4.90;;
13079;SDS011;6606;49.154;9.280;2022-08-25T03:21:07;5.53;;;4.97;;
13079;SDS011;6606;49.154;9.280;2022-08-25T03:23:35;6.60;;;4.88;;
13079;SDS011;6606;49.154;9.280;2022-08-25T03:26:02;5.80;;;5.20;;
13079;SDS011;6606;49.154;9.280;2022-08-25T03:28:46;5.90;;;5.30;;
13079;SDS011;6606;49.154;9.280;2022-08-25T03:31:13;5.93;;;5.33;;
13079;SDS011;6606;49.154;9.280;2022-08-25T03:33:39;5.27;;;4.77;;
13079;SDS011;6606;49.154;9.280;2022-08-25T03:36:08;6.53;;;5.78;;
13079;SDS011;6606;49.154;9.280;2022-08-25T03:38:36;5.43;;;4.90;;
13079;SDS011;6606;49.154;9.280;2022-08-25T03:41:09;6.57;;;5.97;;
13079;SDS011;6606;49.154;9.280;2022-08-25T03:43:41;6.23;;;5.40;;
13079;SDS011;6606;49.154;9.280;2022-08-25T03:46:08;7.57;;;5.83;;
13079;SDS011;6606;49.154;9.280;2022-08-25T03:48:41;6.37;;;5.20;;
13079;SDS011;6606;49.154;9.280;2022-08-25T03:51:09;7.18;;;5.25;;
13079;SDS011;6606;49.154;9.280;2022-08-25T03:53:35;5.10;;;4.60;;
13079;SDS011;6606;49.154;9.280;2022-08-25T03:56:03;6.93;;;5.70;;
13079;SDS011;6606;49.154;9.280;2022-08-25T03:58:29;7.63;;;5.97;;
13079;SDS011;6606;49.154;9.280;2022-08-25T04:00:56;6.10;;;5.50;;
13079;SDS011;6606;49.154;9.280;2022-08-25T04:03:24;6.20;;;5.50;;
13079;SDS011;6606;49.154;9.280;2022-08-25T04:05:51;7.03;;;6.17;;
13079;SDS011;6606;49.154;9.280;2022-08-25T04:08:19;8.00;;;6.17;;
13079;SDS011;6606;49.154;9.280;2022-08-25T04:10:46;6.67;;;5.53;;
13079;SDS011;6606;49.154;9.280;2022-08-25T04:13:13;6.57;;;5.87;;
13079;SDS011;6606;49.154;9.280;2022-08-25T04:15:40;7.27;;;6.17;;
13079;SDS011;6606;49.154;9.280;2022-08-25T04:18:07;6.47;;;5.40;;
13079;SDS011;6606;49.154;9.280;2022-08-25T04:20:35;6.87;;;5.73;;
13079;SDS011;6606;49.154;9.280;2022-08-25T04:23:02;6.80;;;6.10;;
13079;SDS011;6606;49.154;9.280;2022-08-25T04:25:30;6.23;;;5.60;;
13079;SDS011;6606;49.154;9.280;2022-08-25T04:27:57;6.47;;;5.77;;
13079;SDS011;6606;49.154;9.280;2022-08-25T04:30:24;7.27;;;6.57;;
13079;SDS011;6606;49.154;9.280;2022-08-25T04:32:50;7.13;;;6.40;;
13079;SDS011;6606;49.154;9.280;2022-08-25T04:35:17;7.20;;;6.50;;
13079;SDS011;6606;49.154;9.280;2022-08-25T04:37:45;7.10;;;6.40;;
13079;SDS011;6606;49.154;9.280;2022-08-25T04:40:12;6.50;;;5.90;;
13079;SDS011;6606;49.154;9.280;2022-08-25T04:42:40;8.07;;;6.43;;
13079;SDS011;6606;49.154;9.280;2022-08-25T04:45:09;7.20;;;6.23;;
13079;SDS011;6606;49.154;9.280;2022-08-25T04:47:36;6.90;;;6.20;;
13079;SDS011;6606;49.154;9.280;2022-08-25T04:50:04;9.30;;;6.47;;
13079;SDS011;6606;49.154;9.280;2022-08-25T04:52:31;8.57;;;6.00;;
13079;SDS011;6606;49.154;9.280;2022-08-25T04:54:58;7.63;;;6.63;;
13079;SDS011;6606;49.154;9.280;2022-08-25T04:57:25;7.80;;;6.67;;
13079;SDS011;6606;49.154;9.280;2022-08-25T04:59:53;8.17;;;6.93;;
13079;SDS011;6606;49.154;9.280;2022-08-25T05:02:20;7.20;;;6.50;;
13079;SDS011;6606;49.154;9.280;2022-08-25T05:04:48;6.80;;;6.10;;
13079;SDS011;6606;49.154;9.280;2022-08-25T05:07:15;7.45;;;5.88;;
13079;SDS011;6606;49.154;9.280;2022-08-25T05:09:42;9.93;;;6.87;;
13079;SDS011;6606;49.154;9.280;2022-08-25T05:12:08;9.87;;;7.00;;
13079;SDS011;6606;49.154;9.280;2022-08-25T05:14:35;8.00;;;6.50;;
13079;SDS011;6606;49.154;9.280;2022-08-25T05:17:03;8.90;;;7.67;;
13079;SDS011;6606;49.154;9.280;2022-08-25T05:19:31;8.00;;;6.63;;
13079;SDS011;6606;49.154;9.280;2022-08-25T05:21:57;8.20;;;7.20;;
13079;SDS011;6606;49.154;9.280;2022-08-25T05:24:24;8.30;;;7.18;;
13079;SDS011;6606;49.154;9.280;2022-08-25T05:26:52;8.20;;;6.50;;
13079;SDS011;6606;49.154;9.280;2022-08-25T05:29:19;8.88;;;7.78;;
13079;SDS011;6606;49.154;9.280;2022-08-25T05:31:46;9.80;;;7.70;;
13079;SDS011;6606;49.154;9.280;2022-08-25T05:34:15;9.70;;;7.72;;
13079;SDS011;6606;49.154;9.280;2022-08-25T05:36:42;8.90;;;7.63;;
13079;SDS011;6606;49.154;9.280;2022-08-25T05:39:12;12.27;;;7.00;;
13079;SDS011;6606;49.154;9.280;2022-08-25T05:41:39;12.00;;;7.35;;
13079;SDS011;6606;49.154;9.280;2022-08-25T05:44:05;12.52;;;7.88;;
13079;SDS011;6606;49.154;9.280;2022-08-25T05:46:33;12.85;;;7.60;;
13079;SDS011;6606;49.154;9.280;2022-08-25T05:48:59;11.00;;;8.60;;
13079;SDS011;6606;49.154;9.280;2022-08-25T05:51:27;15.82;;;8.10;;
13079;SDS011;6606;49.154;9.280;2022-08-25T05:53:54;13.02;;;7.97;;
13079;SDS011;6606;49.154;9.280;2022-08-25T05:56:20;14.48;;;9.90;;
13079;SDS011;6606;49.154;9.280;2022-08-25T05:58:47;11.55;;;8.43;;
13079;SDS011;6606;49.154;9.280;2022-08-25T06:01:18;9.48;;;7.97;;
13079;SDS011;6606;49.154;9.280;2022-08-25T06:04:04;10.43;;;7.90;;
13079;SDS011;6606;49.154;9.280;2022-08-25T06:06:32;8.88;;;7.93;;
13079;SDS011;6606;49.154;9.280;2022-08-25T06:09:00;13.88;;;8.73;;
13079;SDS011;6606;49.154;9.280;2022-08-25T06:11:30;9.75;;;8.70;;
13079;SDS011;6606;49.154;9.280;2022-08-25T06:13:57;11.18;;;8.75;;
13079;SDS011;6606;49.154;9.280;2022-08-25T06:16:23;11.00;;;8.98;;
13079;SDS011;6606;49.154;9.280;2022-08-25T06:18:50;9.65;;;8.38;;
13079;SDS011;6606;49.154;9.280;2022-08-25T06:21:17;10.73;;;9.40;;
13079;SDS011;6606;49.154;9.280;2022-08-25T06:23:45;11.55;;;9.63;;
13079;SDS011;6606;49.154;9.280;2022-08-25T06:26:13;11.27;;;9.50;;
13079;SDS011;6606;49.154;9.280;2022-08-25T06:28:40;13.30;;;9.82;;
13079;SDS011;6606;49.154;9.280;2022-08-25T06:31:07;11.90;;;9.02;;
13079;SDS011;6606;49.154;9.280;2022-08-25T06:33:33;10.95;;;9.20;;
13079;SDS011;6606;49.154;9.280;2022-08-25T06:36:00;10.52;;;8.30;;
13079;SDS011;6606;49.154;9.280;2022-08-25T06:38:27;10.95;;;8.80;;
13079;SDS011;6606;49.154;9.280;2022-08-25T06:40:55;9.70;;;8.57;;
13079;SDS011;6606;49.154;9.280;2022-08-25T06:43:22;11.48;;;8.95;;
13079;SDS011;6606;49.154;9.280;2022-08-25T06:45:49;9.55;;;8.50;;
13079;SDS011;6606;49.154;9.280;2022-08-25T06:48:15;10.15;;;9.00;;
13079;SDS011;6606;49.154;9.280;2022-08-25T06:50:42;9.90;;;8.90;;
13079;SDS011;6606;49.154;9.280;2022-08-25T06:53:10;9.90;;;8.88;;
13079;SDS011;6606;49.154;9.280;2022-08-25T06:55:37;13.05;;;9.38;;
13079;SDS011;6606;49.154;9.280;2022-08-25T06:58:06;10.85;;;8.77;;
13079;SDS011;6606;49.154;9.280;2022-08-25T07:00:34;11.65;;;8.68;;
13079;SDS011;6606;49.154;9.280;2022-08-25T07:03:00;10.32;;;7.75;;
13079;SDS011;6606;49.154;9.280;2022-08-25T07:05:29;9.52;;;8.52;;
13079;SDS011;6606;49.154;9.280;2022-08-25T07:07:56;10.88;;;8.85;;
13079;SDS011;6606;49.154;9.280;2022-08-25T07:10:22;8.93;;;8.00;;
13079;SDS011;6606;49.154;9.280;2022-08-25T07:12:50;9.02;;;8.15;;
13079;SDS011;6606;49.154;9.280;2022-08-25T07:15:18;9.02;;;7.82;;
13079;SDS011;6606;49.154;9.280;2022-08-25T07:17:45;10.20;;;7.57;;
13079;SDS011;6606;49.154;9.280;2022-08-25T07:20:11;8.90;;;6.97;;
13079;SDS011;6606;49.154;9.280;2022-08-25T07:22:38;8.10;;;7.30;;
13079;SDS011;6606;49.154;9.280;2022-08-25T07:25:05;7.20;;;6.45;;
13079;SDS011;6606;49.154;9.280;2022-08-25T07:27:32;10.13;;;6.65;;
13079;SDS011;6606;49.154;9.280;2022-08-25T07:29:59;6.97;;;6.22;;
13079;SDS011;6606;49.154;9.280;2022-08-25T07:32:27;6.53;;;5.78;;
13079;SDS011;6606;49.154;9.280;2022-08-25T07:34:54;5.80;;;5.20;;
13079;SDS011;6606;49.154;9.280;2022-08-25T07:37:38;7.07;;;6.07;;
13079;SDS011;6606;49.154;9.280;2022-08-25T07:40:05;8.43;;;5.55;;
13079;SDS011;6606;49.154;9.280;2022-08-25T07:42:33;6.65;;;5.57;;
13079;SDS011;6606;49.154;9.280;2022-08-25T07:45:00;6.25;;;5.32;;
13079;SDS011;6606;49.154;9.280;2022-08-25T07:47:28;7.32;;;5.32;;
13079;SDS011;6606;49.154;9.280;2022-08-25T07:49:55;5.38;;;4.88;;
13079;SDS011;6606;49.154;9.280;2022-08-25T07:52:22;6.75;;;4.90;;
13079;SDS011;6606;49.154;9.280;2022-08-25T07:54:49;22.33;;;5.82;;
13079;SDS011;6606;49.154;9.280;2022-08-25T07:57:18;7.20;;;4.97;;
13079;SDS011;6606;49.154;9.280;2022-08-25T07:59:46;6.10;;;5.35;;
13079;SDS011;6606;49.154;9.280;2022-08-25T08:02:13;5.40;;;4.90;;
13079;SDS011;6606;49.154;9.280;2022-08-25T08:04:41;5.72;;;5.22;;
13079;SDS011;6606;49.154;9.280;2022-08-25T08:07:10;4.90;;;4.32;;
13079;SDS011;6606;49.154;9.280;2022-08-25T08:09:37;4.85;;;4.38;;
13079;SDS011;6606;49.154;9.280;2022-08-25T08:12:04;5.15;;;4.40;;
13079;SDS011;6606;49.154;9.280;2022-08-25T08:14:31;4.30;;;3.90;;
13079;SDS011;6606;49.154;9.280;2022-08-25T08:16:58;4.97;;;4.30;;
13079;SDS011;6606;49.154;9.280;2022-08-25T08:19:25;4.60;;;4.15;;
13079;SDS011;6606;49.154;9.280;2022-08-25T08:21:53;5.25;;;4.38;;
13079;SDS011;6606;49.154;9.280;2022-08-25T08:24:19;7.07;;;4.30;;
13079;SDS011;6606;49.154;9.280;2022-08-25T08:26:46;6.47;;;4.80;;
13079;SDS011;6606;49.154;9.280;2022-08-25T08:29:13;4.65;;;4.25;;
13079;SDS011;6606;49.154;9.280;2022-08-25T08:31:40;4.82;;;4.30;;
13079;SDS011;6606;49.154;9.280;2022-08-25T08:34:07;5.15;;;4.43;;
13079;SDS011;6606;49.154;9.280;2022-08-25T08:36:34;5.70;;;4.55;;
13079;SDS011;6606;49.154;9.280;2022-08-25T08:39:02;5.10;;;4.60;;
13079;SDS011;6606;49.154;9.280;2022-08-25T08:41:35;5.80;;;4.97;;
13079;SDS011;6606;49.154;9.280;2022-08-25T08:44:27;6.18;;;4.90;;
13079;SDS011;6606;49.154;9.280;2022-08-25T08:47:10;5.03;;;4.53;;
13079;SDS011;6606;49.154;9.280;2022-08-25T08:49:47;7.88;;;5.35;;
13079;SDS011;6606;49.154;9.280;2022-08-25T08:52:21;6.07;;;5.10;;
13079;SDS011;6606;49.154;9.280;2022-08-25T08:55:04;7.50;;;4.68;;
13079;SDS011;6606;49.154;9.280;2022-08-25T08:57:36;5.47;;;4.68;;
13079;SDS011;6606;49.154;9.280;2022-08-25T09:00:10;6.60;;;5.05;;
13079;SDS011;6606;49.154;9.280;2022-08-25T09:02:38;6.70;;;5.13;;
13079;SDS011;6606;49.154;9.280;2022-08-25T09:05:11;5.57;;;5.07;;
13079;SDS011;6606;49.154;9.280;2022-08-25T09:07:42;8.73;;;4.97;;
13079;SDS011;6606;49.154;9.280;2022-08-25T09:10:13;5.68;;;4.40;;
13079;SDS011;6606;49.154;9.280;2022-08-25T09:12:42;6.45;;;3.92;;
13079;SDS011;6606;49.154;9.280;2022-08-25T09:15:14;4.78;;;4.03;;
13079;SDS011;6606;49.154;9.280;2022-08-25T09:17:52;4.35;;;3.95;;
13079;SDS011;6606;49.154;9.280;2022-08-25T09:20:39;5.15;;;4.00;;
13079;SDS011;6606;49.154;9.280;2022-08-25T09:23:19;4.28;;;3.75;;
13079;SDS011;6606;49.154;9.280;2022-08-25T09:25:56;4.88;;;4.15;;
13079;SDS011;6606;49.154;9.280;2022-08-25T09:28:46;3.88;;;3.53;;
13079;SDS011;6606;49.154;9.280;2022-08-25T09:31:16;4.20;;;3.80;;
13079;SDS011;6606;49.154;9.280;2022-08-25T09:33:47;3.97;;;3.58;;
13079;SDS011;6606;49.154;9.280;2022-08-25T09:36:13;6.88;;;4.47;;
13079;SDS011;6606;49.154;9.280;2022-08-25T09:38:40;4.20;;;3.80;;
13079;SDS011;6606;49.154;9.280;2022-08-25T09:41:08;4.35;;;3.80;;
13079;SDS011;6606;49.154;9.280;2022-08-25T09:43:37;4.13;;;3.72;;
13079;SDS011;6606;49.154;9.280;2022-08-25T09:46:11;4.38;;;3.90;;
13079;SDS011;6606;49.154;9.280;2022-08-25T09:48:42;4.03;;;3.63;;
13079;SDS011;6606;49.154;9.280;2022-08-25T09:51:14;4.43;;;3.53;;
13079;SDS011;6606;49.154;9.280;2022-08-25T09:53:46;4.13;;;3.63;;
13079;SDS011;6606;49.154;9.280;2022-08-25T09:56:19;3.92;;;3.53;;
13079;SDS011;6606;49.154;9.280;2022-08-25T09:58:47;4.47;;;3.85;;
13079;SDS011;6606;49.154;9.280;2022-08-25T10:01:15;4.68;;;4.13;;
13079;SDS011;6606;49.154;9.280;2022-08-25T10:03:53;5.82;;;4.20;;
13079;SDS011;6606;49.154;9.280;2022-08-25T10:06:23;4.03;;;3.63;;
13079;SDS011;6606;49.154;9.280;2022-08-25T10:08:54;5.18;;;4.32;;
13079;SDS011;6606;49.154;9.280;2022-08-25T10:11:33;6.32;;;4.20;;
13079;SDS011;6606;49.154;9.280;2022-08-25T10:14:04;5.53;;;3.90;;
13079;SDS011;6606;49.154;9.280;2022-08-25T10:16:40;6.35;;;3.95;;
13079;SDS011;6606;49.154;9.280;2022-08-25T10:19:08;4.35;;;3.95;;
13079;SDS011;6606;49.154;9.280;2022-08-25T10:21:36;5.03;;;3.92;;
13079;SDS011;6606;49.154;9.280;2022-08-25T10:24:05;5.35;;;3.95;;
13079;SDS011;6606;49.154;9.280;2022-08-25T10:26:35;4.93;;;4.30;;
13079;SDS011;6606;49.154;9.280;2022-08-25T10:29:24;4.80;;;4.10;;
13079;SDS011;6606;49.154;9.280;2022-08-25T10:32:03;4.43;;;4.03;;
13079;SDS011;6606;49.154;9.280;2022-08-25T10:34:38;4.25;;;3.85;;
13079;SDS011;6606;49.154;9.280;2022-08-25T10:37:13;4.32;;;3.92;;
13079;SDS011;6606;49.154;9.280;2022-08-25T10:39:55;5.00;;;4.20;;
13079;SDS011;6606;49.154;9.280;2022-08-25T10:42:29;5.13;;;3.90;;
13079;SDS011;6606;49.154;9.280;2022-08-25T10:48:26;11.40;;;4.63;;
13079;SDS011;6606;49.154;9.280;2022-08-25T10:51:16;6.78;;;4.20;;
13079;SDS011;6606;49.154;9.280;2022-08-25T10:53:58;4.22;;;3.83;;
13079;SDS011;6606;49.154;9.280;2022-08-25T10:56:33;4.43;;;4.00;;
13079;SDS011;6606;49.154;9.280;2022-08-25T11:02:04;3.70;;;3.40;;
13079;SDS011;6606;49.154;9.280;2022-08-25T11:04:42;3.67;;;3.13;;
13079;SDS011;6606;49.154;9.280;2022-08-25T11:07:15;3.92;;;3.40;;
13079;SDS011;6606;49.154;9.280;2022-08-25T11:09:48;5.18;;;3.15;;
13079;SDS011;6606;49.154;9.280;2022-08-25T11:12:21;5.40;;;3.22;;
13079;SDS011;6606;49.154;9.280;2022-08-25T11:14:54;4.25;;;3.63;;
13079;SDS011;6606;49.154;9.280;2022-08-25T11:17:24;4.20;;;3.22;;
13079;SDS011;6606;49.154;9.280;2022-08-25T11:19:56;4.00;;;3.13;;
13079;SDS011;6606;49.154;9.280;2022-08-25T11:22:27;3.38;;;3.10;;
13079;SDS011;6606;49.154;9.280;2022-08-25T11:25:01;5.38;;;3.28;;
13079;SDS011;6606;49.154;9.280;2022-08-25T11:27:36;8.63;;;3.40;;
13079;SDS011;6606;49.154;9.280;2022-08-25T11:30:10;4.78;;;3.30;;
13079;SDS011;6606;49.154;9.280;2022-08-25T11:32:39;4.32;;;3.42;;
13079;SDS011;6606;49.154;9.280;2022-08-25T11:35:10;3.75;;;3.40;;
13079;SDS011;6606;49.154;9.280;2022-08-25T11:37:42;5.65;;;3.70;;
13079;SDS011;6606;49.154;9.280;2022-08-25T11:40:21;3.53;;;3.00;;
13079;SDS011;6606;49.154;9.280;2022-08-25T11:43:08;5.63;;;3.30;;
13079;SDS011;6606;49.154;9.280;2022-08-25T11:45:56;3.50;;;3.20;;
13079;SDS011;6606;49.154;9.280;2022-08-25T11:48:36;4.05;;;3.17;;
13079;SDS011;6606;49.154;9.280;2022-08-25T11:51:09;4.85;;;2.95;;
13079;SDS011;6606;49.154;9.280;2022-08-25T11:54:01;4.32;;;3.10;;
13079;SDS011;6606;49.154;9.280;2022-08-25T11:56:40;3.50;;;2.80;;
13079;SDS011;6606;49.154;9.280;2022-08-25T11:59:08;3.70;;;3.05;;
13079;SDS011;6606;49.154;9.280;2022-08-25T12:04:30;2.90;;;2.70;;
13079;SDS011;6606;49.154;9.280;2022-08-25T12:12:35;3.22;;;2.80;;
13079;SDS011;6606;49.154;9.280;2022-08-25T12:15:12;3.20;;;2.90;;
13079;SDS011;6606;49.154;9.280;2022-08-25T12:18:05;3.10;;;2.72;;
13079;SDS011;6606;49.154;9.280;2022-08-25T12:23:41;4.53;;;2.70;;
13079;SDS011;6606;49.154;9.280;2022-08-25T12:26:11;5.05;;;2.85;;
13079;SDS011;6606;49.154;9.280;2022-08-25T12:28:47;3.50;;;2.58;;
13079;SDS011;6606;49.154;9.280;2022-08-25T12:31:24;6.43;;;2.72;;
13079;SDS011;6606;49.154;9.280;2022-08-25T12:34:18;3.10;;;2.80;;
13079;SDS011;6606;49.154;9.280;2022-08-25T12:36:57;6.28;;;2.95;;
13079;SDS011;6606;49.154;9.280;2022-08-25T12:39:28;3.88;;;2.78;;
13079;SDS011;6606;49.154;9.280;2022-08-25T12:41:58;3.72;;;2.53;;
13079;SDS011;6606;49.154;9.280;2022-08-25T12:44:33;3.65;;;2.58;;
13079;SDS011;6606;49.154;9.280;2022-08-25T12:47:11;3.40;;;2.60;;
13079;SDS011;6606;49.154;9.280;2022-08-25T12:49:52;2.92;;;2.50;;
13079;SDS011;6606;49.154;9.280;2022-08-25T12:52:20;2.95;;;2.63;;
13079;SDS011;6606;49.154;9.280;2022-08-25T12:54:51;3.13;;;2.83;;
13079;SDS011;6606;49.154;9.280;2022-08-25T12:57:37;2.58;;;2.38;;
13079;SDS011;6606;49.154;9.280;2022-08-25T13:00:13;2.70;;;2.50;;
13079;SDS011;6606;49.154;9.280;2022-08-25T13:05:49;3.83;;;2.40;;
13079;SDS011;6606;49.154;9.280;2022-08-25T13:11:31;2.88;;;2.38;;
13079;SDS011;6606;49.154;9.280;2022-08-25T13:14:03;3.15;;;2.35;;
13079;SDS011;6606;49.154;9.280;2022-08-25T13:16:37;3.28;;;2.33;;
13079;SDS011;6606;49.154;9.280;2022-08-25T13:19:04;2.80;;;2.60;;
13079;SDS011;6606;49.154;9.280;2022-08-25T13:21:34;2.83;;;2.55;;
13079;SDS011;6606;49.154;9.280;2022-08-25T13:24:04;2.88;;;2.67;;
13079;SDS011;6606;49.154;9.280;2022-08-25T13:26:36;4.10;;;2.65;;
13079;SDS011;6606;49.154;9.280;2022-08-25T13:29:11;2.70;;;2.50;;
13079;SDS011;6606;49.154;9.280;2022-08-25T13:31:48;3.45;;;2.17;;
13079;SDS011;6606;49.154;9.280;2022-08-25T13:34:18;5.15;;;2.50;;
13079;SDS011;6606;49.154;9.280;2022-08-25T13:36:49;3.85;;;2.78;;
13079;SDS011;6606;49.154;9.280;2022-08-25T13:39:34;2.63;;;2.38;;
13079;SDS011;6606;49.154;9.280;2022-08-25T13:42:03;3.20;;;2.33;;
13079;SDS011;6606;49.154;9.280;2022-08-25T13:44:34;3.13;;;2.75;;
13079;SDS011;6606;49.154;9.280;2022-08-25T13:47:06;3.05;;;2.65;;
13079;SDS011;6606;49.154;9.280;2022-08-25T13:49:35;3.50;;;2.67;;
13079;SDS011;6606;49.154;9.280;2022-08-25T13:52:04;2.70;;;2.50;;
13079;SDS011;6606;49.154;9.280;2022-08-25T13:54:34;4.90;;;2.50;;
13079;SDS011;6606;49.154;9.280;2022-08-25T13:57:04;2.97;;;2.70;;
13079;SDS011;6606;49.154;9.280;2022-08-25T13:59:35;3.00;;;2.70;;
13079;SDS011;6606;49.154;9.280;2022-08-25T14:02:05;2.90;;;2.70;;
13079;SDS011;6606;49.154;9.280;2022-08-25T14:04:43;3.40;;;2.50;;
13079;SDS011;6606;49.154;9.280;2022-08-25T14:07:24;2.63;;;2.33;;
13079;SDS011;6606;49.154;9.280;2022-08-25T14:09:54;3.67;;;2.53;;
13079;SDS011;6606;49.154;9.280;2022-08-25T14:12:26;3.55;;;2.70;;
13079;SDS011;6606;49.154;9.280;2022-08-25T14:14:58;3.35;;;3.00;;
13079;SDS011;6606;49.154;9.280;2022-08-25T14:17:27;3.80;;;2.80;;
13079;SDS011;6606;49.154;9.280;2022-08-25T14:19:54;3.28;;;2.90;;
13079;SDS011;6606;49.154;9.280;2022-08-25T14:22:23;2.60;;;2.40;;
13079;SDS011;6606;49.154;9.280;2022-08-25T14:24:50;3.30;;;2.95;;
13079;SDS011;6606;49.154;9.280;2022-08-25T14:27:18;3.75;;;3.03;;
13079;SDS011;6606;49.154;9.280;2022-08-25T14:29:45;3.17;;;2.88;;
13079;SDS011;6606;49.154;9.280;2022-08-25T14:32:12;3.40;;;3.10;;
13079;SDS011;6606;49.154;9.280;2022-08-25T14:34:40;5.38;;;2.95;;
13079;SDS011;6606;49.154;9.280;2022-08-25T14:37:08;3.92;;;2.80;;
13079;SDS011;6606;49.154;9.280;2022-08-25T14:39:40;6.22;;;3.35;;
13079;SDS011;6606;49.154;9.280;2022-08-25T14:42:06;3.63;;;3.20;;
13079;SDS011;6606;49.154;9.280;2022-08-25T14:44:33;3.03;;;2.83;;
13079;SDS011;6606;49.154;9.280;2022-08-25T14:47:00;3.20;;;2.90;;
13079;SDS011;6606;49.154;9.280;2022-08-25T14:49:29;3.00;;;2.70;;
13079;SDS011;6606;49.154;9.280;2022-08-25T14:51:59;3.28;;;2.97;;
13079;SDS011;6606;49.154;9.280;2022-08-25T14:54:29;3.00;;;2.75;;
13079;SDS011;6606;49.154;9.280;2022-08-25T14:56:57;2.55;;;2.35;;
13079;SDS011;6606;49.154;9.280;2022-08-25T14:59:24;3.83;;;3.13;;
13079;SDS011;6606;49.154;9.280;2022-08-25T15:01:51;2.95;;;2.65;;
13079;SDS011;6606;49.154;9.280;2022-08-25T15:04:19;3.58;;;2.92;;
13079;SDS011;6606;49.154;9.280;2022-08-25T15:06:48;4.57;;;2.80;;
13079;SDS011;6606;49.154;9.280;2022-08-25T15:09:19;3.05;;;2.67;;
13079;SDS011;6606;49.154;9.280;2022-08-25T15:11:46;2.88;;;2.67;;
13079;SDS011;6606;49.154;9.280;2022-08-25T15:14:15;3.35;;;2.80;;
13079;SDS011;6606;49.154;9.280;2022-08-25T15:16:44;2.88;;;2.40;;
13079;SDS011;6606;49.154;9.280;2022-08-25T15:19:12;5.32;;;2.63;;
13079;SDS011;6606;49.154;9.280;2022-08-25T15:21:41;3.13;;;2.83;;
13079;SDS011;6606;49.154;9.280;2022-08-25T15:24:09;3.20;;;2.75;;
13079;SDS011;6606;49.154;9.280;2022-08-25T15:26:38;2.85;;;2.65;;
13079;SDS011;6606;49.154;9.280;2022-08-25T15:29:08;3.17;;;2.60;;
13079;SDS011;6606;49.154;9.280;2022-08-25T15:31:36;2.83;;;2.60;;
13079;SDS011;6606;49.154;9.280;2022-08-25T15:34:04;3.28;;;2.63;;
13079;SDS011;6606;49.154;9.280;2022-08-25T15:36:31;5.20;;;3.00;;
13079;SDS011;6606;49.154;9.280;2022-08-25T15:38:58;2.78;;;2.58;;
13079;SDS011;6606;49.154;9.280;2022-08-25T15:41:25;2.78;;;2.53;;